Time;durP1;ratioP1;P1;durP2;ratioP2;P2;SDS_P1;SDS_P2;PMS_P1;PMS_P2;Temp;Humidity;BMP_temperature;BMP_pressure;BME280_temperature;BME280_humidity;BME280_pressure;Samples;Min_cycle;Max_cycle;Signal;HPM_P1;HPM_P2
2023/04/22 00:01:16;;;;;;;16.40;5.95;;;;;;;8.43;86.30;94322.44;5133399;27;20200;-73
2023/04/22 00:03:43;;;;;;;10.55;5.50;;;;;;;8.35;86.14;94307.03;5145056;27;20228;-72
2023/04/22 00:06:10;;;;;;;12.35;6.22;;;;;;;8.32;86.06;94323.09;5144743;27;20666;-73
2023/04/22 00:08:37;;;;;;;8.38;5.15;;;;;;;8.25;86.75;94318.13;5140663;27;20249;-72
2023/04/22 00:11:03;;;;;;;10.30;5.65;;;;;;;8.17;86.41;94294.66;5138306;27;20236;-72
2023/04/22 00:13:30;;;;;;;9.00;5.50;;;;;;;8.45;85.07;94316.72;5141435;27;20189;-72
2023/04/22 00:15:57;;;;;;;14.15;4.88;;;;;;;8.30;85.39;94312.59;5144835;27;20208;-73
2023/04/22 00:18:26;;;;;;;7.75;4.68;;;;;;;8.14;86.09;94309.59;5140958;27;20586;-72
2023/04/22 00:20:53;;;;;;;7.93;4.32;;;;;;;8.10;85.92;94315.94;5137539;27;20228;-73
2023/04/22 00:23:19;;;;;;;8.75;4.45;;;;;;;8.03;86.19;94316.44;5152063;27;20197;-71
2023/04/22 00:25:46;;;;;;;7.57;5.13;;;;;;;8.01;86.58;94315.16;5147815;27;20200;-71
2023/04/22 00:28:13;;;;;;;8.82;5.00;;;;;;;7.89;86.59;94306.91;5141346;27;20386;-72
2023/04/22 00:30:40;;;;;;;9.30;5.30;;;;;;;7.89;86.57;94323.91;5137391;27;20200;-72
2023/04/22 00:33:07;;;;;;;9.80;5.68;;;;;;;7.78;86.98;94312.63;5141009;27;20201;-72
2023/04/22 00:35:35;;;;;;;9.15;5.45;;;;;;;7.77;87.38;94313.75;5144188;27;20205;-72
2023/04/22 00:38:02;;;;;;;9.95;5.90;;;;;;;7.68;87.79;94321.03;5141088;27;20224;-72
2023/04/22 00:40:29;;;;;;;13.00;6.03;;;;;;;7.44;88.37;94304.53;5132727;27;20918;-73
2023/04/22 00:42:55;;;;;;;12.80;6.43;;;;;;;7.52;88.47;94321.81;5129481;27;20217;-72
2023/04/22 00:45:22;;;;;;;10.48;5.50;;;;;;;7.50;89.17;94324.84;5134860;27;20212;-73
2023/04/22 00:47:49;;;;;;;7.90;5.80;;;;;;;7.45;88.89;94327.66;5139999;27;20197;-73
2023/04/22 00:50:16;;;;;;;9.45;5.88;;;;;;;7.27;89.76;94334.91;5135495;27;20204;-72
2023/04/22 00:52:44;;;;;;;13.50;6.65;;;;;;;7.11;90.74;94317.59;5151916;27;20211;-71
2023/04/22 00:55:12;;;;;;;14.40;7.25;;;;;;;7.13;91.11;94332.34;5145220;27;20200;-73
2023/04/22 00:57:39;;;;;;;9.45;5.53;;;;;;;7.12;91.45;94336.16;5139201;27;20205;-71
2023/04/22 01:00:08;;;;;;;14.73;9.98;;;;;;;7.10;92.00;94346.47;5143936;27;20239;-72
2023/04/22 01:02:36;;;;;;;21.27;10.85;;;;;;;7.16;91.80;94346.28;5130141;27;20193;-72
2023/04/22 01:05:04;;;;;;;15.43;9.85;;;;;;;7.09;91.61;94349.47;5136509;27;20214;-72
2023/04/22 01:07:31;;;;;;;12.25;6.53;;;;;;;7.11;92.00;94345.31;5136995;27;20215;-72
2023/04/22 01:10:00;;;;;;;15.55;6.07;;;;;;;6.98;92.90;94330.06;5142672;27;20675;-73
2023/04/22 01:12:27;;;;;;;12.13;5.88;;;;;;;7.11;93.85;94349.91;5129483;27;20236;-72
2023/04/22 01:14:54;;;;;;;12.30;6.35;;;;;;;7.18;94.15;94346.78;5137261;27;20697;-72
2023/04/22 01:17:20;;;;;;;16.63;6.65;;;;;;;7.17;93.40;94318.25;5136870;27;20196;-71
2023/04/22 01:19:48;;;;;;;15.32;5.70;;;;;;;7.42;91.88;94344.47;5142398;27;20323;-72
2023/04/22 01:22:15;;;;;;;7.18;4.75;;;;;;;7.36;91.43;94340.34;5143280;27;20200;-72
2023/04/22 01:24:44;;;;;;;9.27;5.13;;;;;;;7.22;91.54;94318.13;5137884;27;20196;-72
2023/04/22 01:27:11;;;;;;;13.57;5.03;;;;;;;7.28;91.51;94331.13;5136197;27;20215;-71
2023/04/22 01:29:38;;;;;;;12.30;5.50;;;;;;;7.41;91.53;94338.28;5140616;27;20209;-73
2023/04/22 01:32:06;;;;;;;8.32;5.20;;;;;;;7.28;91.85;94322.25;5129151;27;20205;-71
2023/04/22 01:34:33;;;;;;;12.52;5.05;;;;;;;7.28;91.82;94320.34;5139152;27;20215;-72
2023/04/22 01:37:00;;;;;;;12.57;5.75;;;;;;;7.50;91.56;94346.38;5136492;27;20619;-71
2023/04/22 01:39:27;;;;;;;8.00;4.70;;;;;;;7.33;91.70;94322.09;5140012;27;20224;-71
2023/04/22 01:41:57;;;;;;;10.95;5.05;;;;;;;7.44;91.82;94331.47;5142833;27;20233;-72
2023/04/22 01:44:24;;;;;;;10.55;5.45;;;;;;;7.60;91.61;94340.69;5129603;27;20653;-72
2023/04/22 01:46:51;;;;;;;11.18;5.30;;;;;;;7.57;91.15;94330.53;5133215;27;20244;-72
2023/04/22 01:49:18;;;;;;;11.65;4.97;;;;;;;7.64;90.53;94330.06;5139395;27;20208;-72
2023/04/22 01:51:44;;;;;;;12.95;5.38;;;;;;;7.65;89.73;94320.88;5132841;27;20655;-72
2023/04/22 01:54:11;;;;;;;12.35;5.55;;;;;;;7.78;90.44;94328.81;5138130;27;20193;-72
2023/04/22 01:56:39;;;;;;;10.70;5.97;;;;;;;7.88;89.96;94326.91;5142801;27;20717;-72
2023/04/22 01:59:08;;;;;;;10.23;5.25;;;;;;;7.89;89.70;94325.78;5133659;27;20768;-71
2023/04/22 02:01:34;;;;;;;6.30;4.32;;;;;;;8.04;88.86;94322.63;5133716;27;20206;-71
2023/04/22 02:04:01;;;;;;;11.75;5.00;;;;;;;8.03;89.02;94321.03;5137924;27;20200;-71
2023/04/22 02:06:28;;;;;;;10.30;5.70;;;;;;;8.17;88.95;94329.75;5143031;27;20590;-72
2023/04/22 02:08:55;;;;;;;11.05;6.28;;;;;;;8.17;88.22;94327.03;5129287;27;20200;-72
2023/04/22 02:11:22;;;;;;;8.48;5.28;;;;;;;8.20;88.26;94319.09;5142783;27;20664;-72
2023/04/22 02:13:49;;;;;;;14.52;6.22;;;;;;;8.29;87.92;94324.50;5141633;27;20192;-73
2023/04/22 02:16:18;;;;;;;11.05;5.85;;;;;;;8.27;87.47;94318.63;5135325;27;20207;-73
2023/04/22 02:18:44;;;;;;;9.77;5.85;;;;;;;8.29;87.64;94329.88;5137278;27;20236;-71
2023/04/22 02:21:11;;;;;;;12.65;6.55;;;;;;;8.27;87.93;94332.09;5142598;27;20296;-71
2023/04/22 02:23:40;;;;;;;11.18;6.00;;;;;;;8.14;88.97;94328.47;5141930;27;20200;-72
2023/04/22 02:26:07;;;;;;;10.50;5.43;;;;;;;8.17;88.92;94333.22;5134960;27;20609;-72
2023/04/22 02:28:34;;;;;;;14.23;6.28;;;;;;;8.22;88.37;94334.97;5149757;27;20566;-72
2023/04/22 02:31:01;;;;;;;11.05;6.05;;;;;;;8.31;88.34;94330.38;5135538;27;20211;-73
2023/04/22 02:33:29;;;;;;;10.82;6.03;;;;;;;8.29;88.33;94308.28;5135880;27;20201;-71
2023/04/22 02:35:56;;;;;;;10.88;6.07;;;;;;;8.51;88.44;94329.69;5135663;27;20605;-72
2023/04/22 02:38:23;;;;;;;12.25;6.30;;;;;;;8.65;87.94;94332.19;5136068;27;20205;-72
2023/04/22 02:40:50;;;;;;;12.23;5.55;;;;;;;8.55;87.53;94333.34;5142502;27;20224;-71
2023/04/22 02:43:17;;;;;;;10.98;5.45;;;;;;;8.38;87.51;94306.38;5142071;27;20200;-71
2023/04/22 02:45:44;;;;;;;10.35;6.03;;;;;;;8.42;87.32;94334.34;5135657;27;20210;-71
2023/04/22 02:48:11;;;;;;;10.18;6.38;;;;;;;8.34;86.99;94321.63;5134397;27;20686;-72
2023/04/22 02:50:39;;;;;;;9.02;6.18;;;;;;;8.29;87.20;94335.28;5141120;27;20262;-72
2023/04/22 02:53:06;;;;;;;12.57;6.43;;;;;;;8.25;87.31;94345.13;5142317;27;20205;-73
2023/04/22 02:55:33;;;;;;;13.27;6.43;;;;;;;8.11;88.03;94334.50;5136822;27;20877;-72
2023/04/22 02:58:00;;;;;;;12.43;6.20;;;;;;;8.11;87.94;94350.69;5138296;27;20249;-72
2023/04/22 03:00:27;;;;;;;15.27;6.57;;;;;;;7.90;88.49;94354.34;5127972;27;20852;-72
2023/04/22 03:02:53;;;;;;;12.32;6.75;;;;;;;7.70;89.45;94351.16;5142252;27;20200;-72
2023/04/22 03:05:21;;;;;;;13.63;5.93;;;;;;;7.78;89.18;94341.50;5130848;27;20212;-72
2023/04/22 03:07:49;;;;;;;12.60;5.43;;;;;;;7.99;89.05;94352.44;5134590;27;20663;-72
2023/04/22 03:10:16;;;;;;;8.90;5.40;;;;;;;7.92;88.85;94335.94;5143092;27;20201;-71
2023/04/22 03:12:43;;;;;;;11.23;5.70;;;;;;;7.93;89.05;94351.78;5145300;27;20243;-71
2023/04/22 03:15:10;;;;;;;10.60;6.15;;;;;;;7.93;88.91;94354.50;5132009;27;20197;-72
2023/04/22 03:17:37;;;;;;;12.32;5.22;;;;;;;7.87;88.71;94328.00;5132419;27;20213;-73
2023/04/22 03:20:05;;;;;;;15.07;7.30;;;;;;;7.93;88.26;94348.28;5142099;27;20224;-73
2023/04/22 03:22:32;;;;;;;22.90;10.05;;;;;;;7.94;88.46;94350.69;5138778;27;20242;-72
2023/04/22 03:25:00;;;;;;;20.70;8.77;;;;;;;7.93;88.24;94342.91;5142726;27;20204;-73
2023/04/22 03:27:27;;;;;;;22.15;8.25;;;;;;;7.93;88.42;94348.28;5132314;27;20201;-73
2023/04/22 03:29:53;;;;;;;12.13;6.82;;;;;;;7.90;88.85;94348.97;5141971;27;20204;-72
2023/04/22 03:32:20;;;;;;;13.23;6.53;;;;;;;7.85;88.83;94348.00;5139091;27;20284;-73
2023/04/22 03:34:47;;;;;;;13.10;7.30;;;;;;;7.80;88.94;94350.84;5141743;27;20205;-72
2023/04/22 03:37:14;;;;;;;13.30;6.63;;;;;;;7.90;89.31;94359.75;5145172;27;20245;-72
2023/04/22 03:39:41;;;;;;;10.68;5.80;;;;;;;7.90;88.88;94365.13;5141978;27;20228;-72
2023/04/22 03:42:10;;;;;;;15.15;7.45;;;;;;;7.90;88.70;94365.94;5138107;27;20249;-72
2023/04/22 03:44:37;;;;;;;11.38;6.20;;;;;;;7.91;88.67;94372.91;5140874;27;20256;-71
2023/04/22 03:47:04;;;;;;;12.63;7.05;;;;;;;7.93;88.89;94376.06;5144821;27;20197;-71
2023/04/22 03:49:31;;;;;;;11.80;6.03;;;;;;;7.82;89.17;94354.00;5142365;27;20206;-73
2023/04/22 03:51:58;;;;;;;15.15;7.03;;;;;;;8.00;89.00;94373.69;5138049;27;20276;-72
2023/04/22 03:54:25;;;;;;;10.13;6.32;;;;;;;8.48;88.89;94368.13;5139547;27;20744;-72
2023/04/22 03:56:51;;;;;;;10.43;6.22;;;;;;;9.08;86.64;94359.06;5144901;27;20201;-72
2023/04/22 03:59:20;;;;;;;15.55;7.85;;;;;;;9.64;83.87;94351.63;5135631;27;20229;-71
2023/04/22 04:01:47;;;;;;;14.30;7.18;;;;;;;10.48;80.80;94358.63;5131378;27;20208;-72
2023/04/22 04:04:14;;;;;;;13.55;6.90;;;;;;;11.50;76.61;94354.25;5144516;27;20299;-72
2023/04/22 04:06:41;;;;;;;17.85;10.00;;;;;;;12.25;72.53;94355.41;5145580;27;20201;-73
2023/04/22 04:09:08;;;;;;;17.85;9.63;;;;;;;12.98;69.57;94352.38;5143726;27;20203;-72
2023/04/22 04:11:34;;;;;;;22.80;7.85;;;;;;;13.56;67.64;94344.47;5137709;27;20231;-72
2023/04/22 04:14:02;;;;;;;13.80;9.43;;;;;;;14.01;66.57;94354.84;5138076;27;20224;-71
2023/04/22 04:16:30;;;;;;;13.45;8.82;;;;;;;14.07;66.25;94328.91;5137530;27;20253;-72
2023/04/22 04:18:57;;;;;;;15.02;10.45;;;;;;;14.61;62.89;94344.47;5137738;27;20201;-72
2023/04/22 04:21:25;;;;;;;19.13;9.23;;;;;;;14.61;62.43;94347.19;5137680;27;20200;-72
2023/04/22 04:23:52;;;;;;;11.85;8.48;;;;;;;15.42;61.36;94350.59;5138174;27;20205;-72
2023/04/22 04:26:19;;;;;;;11.35;6.55;;;;;;;15.99;59.25;94346.03;5144390;27;20383;-72
2023/04/22 04:28:48;;;;;;;13.70;8.35;;;;;;;16.26;57.14;94342.13;5144774;27;20230;-72
2023/04/22 04:31:14;;;;;;;11.27;6.63;;;;;;;16.57;55.88;94348.38;5138519;27;20223;-72
2023/04/22 04:33:43;;;;;;;13.15;8.30;;;;;;;16.91;55.67;94341.00;5137303;27;20208;-72
2023/04/22 04:36:10;;;;;;;11.40;8.63;;;;;;;17.33;53.61;94362.53;5143337;27;20205;-72
2023/04/22 04:38:36;;;;;;;12.98;8.68;;;;;;;17.01;54.43;94368.47;5144885;27;20257;-72
2023/04/22 04:41:03;;;;;;;11.98;8.05;;;;;;;17.13;53.72;94358.41;5138792;27;20232;-72
2023/04/22 04:43:30;;;;;;;14.40;10.05;;;;;;;17.86;51.85;94367.72;5150287;27;20601;-73
2023/04/22 04:45:57;;;;;;;13.43;9.77;;;;;;;18.01;51.70;94363.91;5130584;27;20292;-73
2023/04/22 04:48:25;;;;;;;12.98;9.38;;;;;;;17.69;53.57;94372.66;5132145;27;20201;-73
2023/04/22 04:50:54;;;;;;;13.18;9.57;;;;;;;17.82;52.45;94386.06;5140938;27;20239;-73
2023/04/22 04:53:21;;;;;;;12.93;8.73;;;;;;;18.08;54.10;94370.22;5144536;27;20197;-73
2023/04/22 04:55:49;;;;;;;15.25;9.70;;;;;;;17.69;51.54;94380.88;5130305;27;20230;-74
2023/04/22 04:58:16;;;;;;;15.90;9.23;;;;;;;18.91;49.47;94369.50;5135268;27;20466;-73
2023/04/22 05:00:42;;;;;;;12.75;9.68;;;;;;;19.33;47.85;94376.28;5129983;27;20228;-72
2023/04/22 05:03:09;;;;;;;11.57;9.10;;;;;;;20.11;47.01;94373.63;5134027;27;20196;-73
2023/04/22 05:05:36;;;;;;;17.98;11.00;;;;;;;20.16;45.65;94374.03;5139421;27;20207;-74
2023/04/22 05:08:04;;;;;;;14.00;10.40;;;;;;;21.29;43.47;94372.16;5143858;27;20209;-73
2023/04/22 05:10:31;;;;;;;17.17;10.00;;;;;;;20.88;43.43;94377.41;5141738;27;20289;-73
2023/04/22 05:12:58;;;;;;;16.33;10.27;;;;;;;20.17;44.82;94375.59;5136771;27;20255;-74
2023/04/22 05:15:25;;;;;;;14.35;9.32;;;;;;;19.22;46.78;94378.25;5138932;27;20201;-73
2023/04/22 05:17:52;;;;;;;15.73;9.93;;;;;;;18.35;48.25;94368.03;5130211;27;20215;-73
2023/04/22 05:20:19;;;;;;;15.48;10.50;;;;;;;18.71;48.27;94384.72;5141746;27;20231;-73
2023/04/22 05:22:45;;;;;;;19.02;10.38;;;;;;;17.09;50.95;94368.53;5136151;27;20264;-74
2023/04/22 05:25:14;;;;;;;14.93;10.27;;;;;;;16.58;53.16;94404.63;5137564;27;20785;-73
2023/04/22 05:27:41;;;;;;;15.70;9.95;;;;;;;17.06;52.42;94389.25;5141993;27;20663;-73
2023/04/22 05:30:09;;;;;;;17.85;10.05;;;;;;;17.69;51.17;94400.06;5141669;27;20291;-73
2023/04/22 05:32:36;;;;;;;15.02;10.27;;;;;;;18.52;48.96;94382.25;5144571;27;20292;-73
2023/04/22 05:35:03;;;;;;;15.45;10.18;;;;;;;18.89;48.29;94393.81;5142471;27;20196;-74
2023/04/22 05:37:30;;;;;;;14.80;9.52;;;;;;;18.62;48.82;94403.47;5136409;27;20756;-74
2023/04/22 05:39:56;;;;;;;13.20;9.52;;;;;;;19.12;47.28;94371.56;5136553;27;20221;-74
2023/04/22 05:42:25;;;;;;;15.05;10.43;;;;;;;19.98;46.36;94398.00;5129515;27;20217;-75
2023/04/22 05:44:51;;;;;;;12.10;9.75;;;;;;;17.66;50.17;94408.25;5129816;27;20601;-74
2023/04/22 05:47:18;;;;;;;15.15;10.32;;;;;;;18.07;50.55;94398.00;5142747;27;20233;-74
2023/04/22 05:49:45;;;;;;;17.65;10.02;;;;;;;18.75;48.32;94375.31;5143082;27;20288;-74
2023/04/22 05:52:12;;;;;;;15.25;9.63;;;;;;;19.77;46.62;94385.03;5137155;27;20204;-73
2023/04/22 05:54:39;;;;;;;16.95;10.13;;;;;;;20.87;44.63;94395.13;5135821;27;20222;-73
2023/04/22 05:57:06;;;;;;;17.85;9.90;;;;;;;21.73;42.54;94368.69;5141946;27;20687;-73
2023/04/22 05:59:34;;;;;;;16.23;10.60;;;;;;;21.95;41.27;94386.66;5143474;27;20204;-73
2023/04/22 06:02:01;;;;;;;16.33;9.98;;;;;;;21.79;41.47;94339.50;5137677;27;20204;-74
2023/04/22 06:04:28;;;;;;;14.23;9.50;;;;;;;22.75;39.57;94344.13;5136134;27;20224;-74
2023/04/22 06:06:56;;;;;;;15.23;10.05;;;;;;;23.81;37.50;94358.53;5142034;27;20204;-73
2023/04/22 06:09:23;;;;;;;16.55;10.32;;;;;;;23.11;39.01;94371.34;5133734;27;20275;-73
2023/04/22 06:11:49;;;;;;;11.88;9.63;;;;;;;22.94;38.88;94379.47;5128833;27;20232;-72
2023/04/22 06:14:16;;;;;;;16.55;9.70;;;;;;;23.30;38.44;94374.25;5142500;27;20204;-72
2023/04/22 06:16:44;;;;;;;13.18;9.27;;;;;;;23.38;38.09;94370.19;5128710;27;20213;-73
2023/04/22 06:19:11;;;;;;;18.48;10.40;;;;;;;24.04;37.18;94372.41;5130464;27;20197;-72
2023/04/22 06:21:39;;;;;;;14.05;10.55;;;;;;;24.59;36.38;94373.88;5140303;27;20233;-73
2023/04/22 06:24:07;;;;;;;14.57;10.68;;;;;;;20.74;42.20;94386.53;5128291;28;20611;-73
2023/04/22 06:26:34;;;;;;;15.25;9.57;;;;;;;21.50;41.39;94387.75;5138356;27;20666;-73
2023/04/22 06:29:04;;;;;;;14.82;10.57;;;;;;;20.39;42.50;94392.88;5135239;27;20247;-73
2023/04/22 06:31:31;;;;;;;13.15;9.07;;;;;;;19.94;43.78;94393.69;5139307;27;20200;-73
2023/04/22 06:33:59;;;;;;;12.05;8.65;;;;;;;20.42;42.39;94397.59;5124106;27;20212;-72
2023/04/22 06:36:27;;;;;;;12.02;8.07;;;;;;;20.44;42.65;94403.50;5139150;27;20659;-74
2023/04/22 06:38:55;;;;;;;13.00;9.00;;;;;;;21.25;41.65;94393.41;5132684;27;20620;-73
2023/04/22 06:41:22;;;;;;;13.35;9.38;;;;;;;22.82;39.15;94381.97;5142532;27;20323;-75
2023/04/22 06:43:49;;;;;;;14.48;9.27;;;;;;;22.15;39.64;94375.88;5139535;27;20204;-74
2023/04/22 06:46:16;;;;;;;13.77;9.18;;;;;;;21.16;41.17;94402.09;5142240;27;20662;-73
2023/04/22 06:48:43;;;;;;;12.52;9.45;;;;;;;20.60;42.69;94399.53;5138039;27;20224;-72
2023/04/22 06:51:11;;;;;;;14.02;9.23;;;;;;;20.87;43.32;94395.13;5153575;27;20252;-73
2023/04/22 06:53:38;;;;;;;15.68;9.68;;;;;;;20.99;42.49;94402.94;5133575;27;20262;-72
2023/04/22 06:56:08;;;;;;;12.38;9.68;;;;;;;20.60;43.75;94385.78;5132276;27;20193;-73
2023/04/22 06:58:35;;;;;;;17.85;9.77;;;;;;;19.51;45.68;94404.63;5148937;27;20284;-72
2023/04/22 07:01:01;;;;;;;13.25;9.68;;;;;;;19.15;46.85;94404.50;5139097;27;20249;-72
2023/04/22 07:03:28;;;;;;;15.23;10.02;;;;;;;19.59;46.50;94399.94;5138861;27;20204;-73
2023/04/22 07:05:55;;;;;;;14.50;9.70;;;;;;;18.15;48.89;94402.41;5138992;27;20792;-73
2023/04/22 07:08:23;;;;;;;18.45;10.60;;;;;;;18.99;47.61;94406.81;5139640;27;20207;-73
2023/04/22 07:10:50;;;;;;;13.02;9.90;;;;;;;19.98;45.25;94402.69;5138505;27;20208;-72
2023/04/22 07:13:17;;;;;;;15.23;9.50;;;;;;;21.76;41.71;94400.97;5132139;27;20640;-73
2023/04/22 07:15:45;;;;;;;16.25;10.45;;;;;;;23.25;39.03;94394.06;5145770;27;20659;-72
2023/04/22 07:18:12;;;;;;;14.70;9.88;;;;;;;21.73;40.65;94390.75;5139747;27;20291;-72
2023/04/22 07:20:38;;;;;;;13.20;9.57;;;;;;;22.01;40.07;94391.75;5138604;27;20232;-72
2023/04/22 07:23:05;;;;;;;15.25;8.80;;;;;;;20.52;43.23;94402.28;5143910;27;20192;-72
2023/04/22 07:25:33;;;;;;;12.75;8.75;;;;;;;20.36;43.66;94399.19;5145758;27;20472;-71
2023/04/22 07:28:00;;;;;;;16.02;9.15;;;;;;;19.29;46.30;94413.94;5131863;27;20565;-74
2023/04/22 07:30:27;;;;;;;11.35;8.73;;;;;;;19.95;44.72;94407.03;5133446;27;20216;-72
2023/04/22 07:32:54;;;;;;;12.57;8.80;;;;;;;19.72;45.72;94407.41;5144036;27;20197;-70
2023/04/22 07:35:21;;;;;;;12.90;9.02;;;;;;;19.09;46.19;94417.03;5145338;27;20673;-70
2023/04/22 07:37:48;;;;;;;13.00;8.57;;;;;;;19.45;45.83;94406.94;5140765;27;20261;-71
2023/04/22 07:40:15;;;;;;;12.73;8.50;;;;;;;19.82;45.82;94406.63;5136226;27;20221;-72
2023/04/22 07:42:43;;;;;;;12.55;7.50;;;;;;;19.41;45.68;94410.84;5131294;27;20722;-73
2023/04/22 07:45:10;;;;;;;12.73;6.97;;;;;;;18.72;47.36;94413.75;5145628;27;20209;-72
2023/04/22 07:47:37;;;;;;;9.20;6.82;;;;;;;19.42;45.12;94409.66;5131175;27;20201;-73
2023/04/22 07:50:04;;;;;;;9.52;5.45;;;;;;;19.32;44.94;94404.94;5144662;27;20205;-73
2023/04/22 07:52:31;;;;;;;8.32;5.38;;;;;;;19.51;43.91;94399.94;5142062;27;20314;-73
2023/04/22 07:54:58;;;;;;;7.07;4.95;;;;;;;19.75;44.11;94403.88;5137924;27;20196;-73
2023/04/22 07:57:25;;;;;;;10.88;5.30;;;;;;;18.85;44.88;94406.75;5143034;27;20208;-74
2023/04/22 07:59:53;;;;;;;8.60;5.00;;;;;;;19.44;43.90;94399.88;5134030;27;20204;-73
2023/04/22 08:02:20;;;;;;;8.85;5.22;;;;;;;18.59;45.14;94399.53;5142346;27;20232;-73
2023/04/22 08:04:46;;;;;;;7.72;5.53;;;;;;;18.33;45.63;94394.25;5134016;27;20220;-72
2023/04/22 08:07:14;;;;;;;8.45;5.55;;;;;;;18.71;45.30;94401.97;5142141;27;20196;-73
2023/04/22 08:09:41;;;;;;;10.98;7.28;;;;;;;19.71;43.68;94386.59;5137932;27;20211;-73
2023/04/22 08:12:08;;;;;;;9.30;7.15;;;;;;;20.46;42.17;94390.13;5139498;27;20674;-74
2023/04/22 08:14:35;;;;;;;6.25;5.20;;;;;;;20.53;41.69;94387.34;5144763;27;20570;-72
2023/04/22 08:17:03;;;;;;;9.35;5.93;;;;;;;20.01;42.94;94390.91;5130142;27;20602;-73
2023/04/22 08:19:30;;;;;;;11.18;4.95;;;;;;;20.19;42.66;94397.22;5144620;27;20524;-74
2023/04/22 08:21:56;;;;;;;9.27;5.43;;;;;;;20.24;44.23;94389.31;5143398;27;20228;-74
2023/04/22 08:24:23;;;;;;;9.32;5.28;;;;;;;20.28;42.13;94377.53;5137577;27;20205;-73
2023/04/22 08:26:50;;;;;;;11.73;5.45;;;;;;;20.51;42.37;94384.19;5139087;27;20253;-74
2023/04/22 08:29:17;;;;;;;9.07;5.65;;;;;;;19.50;43.39;94389.31;5136352;27;20193;-74
2023/04/22 08:31:44;;;;;;;8.25;4.93;;;;;;;20.00;43.28;94364.59;5143804;27;20256;-75
2023/04/22 08:34:12;;;;;;;7.80;4.93;;;;;;;18.04;46.95;94385.09;5137826;27;20691;-74
2023/04/22 08:36:39;;;;;;;12.55;5.38;;;;;;;18.77;46.32;94380.44;5137088;27;20880;-74
2023/04/22 08:39:06;;;;;;;7.32;4.80;;;;;;;19.41;44.09;94372.38;5130037;27;20212;-73
2023/04/22 08:41:34;;;;;;;6.20;4.68;;;;;;;19.04;43.99;94376.22;5143551;27;20238;-73
2023/04/22 08:44:01;;;;;;;6.78;5.18;;;;;;;19.04;44.51;94365.25;5137187;27;20200;-72
2023/04/22 08:46:29;;;;;;;8.85;4.57;;;;;;;19.79;42.54;94359.91;5136799;27;20219;-72
2023/04/22 08:49:02;;;;;;;7.20;5.20;;;;;;;18.11;45.55;94366.72;5137644;27;20208;-75
2023/04/22 08:51:32;;;;;;;7.22;5.15;;;;;;;17.37;47.55;94363.34;5137058;27;20899;-77
2023/04/22 08:53:59;;;;;;;9.20;5.43;;;;;;;17.54;47.91;94368.19;5141936;27;20727;-74
2023/04/22 08:56:27;;;;;;;6.75;4.93;;;;;;;18.10;47.49;94350.66;5143666;27;20207;-73
2023/04/22 08:58:54;;;;;;;10.60;5.35;;;;;;;19.24;44.69;94348.44;5135091;27;20683;-73
2023/04/22 09:01:22;;;;;;;5.45;4.22;;;;;;;18.70;43.67;94355.72;5132231;27;20224;-75
2023/04/22 09:03:49;;;;;;;8.27;3.83;;;;;;;18.47;43.84;94355.94;5140594;27;20213;-74
2023/04/22 09:06:19;;;;;;;11.80;4.95;;;;;;;17.93;46.15;94348.56;5143803;27;20216;-73
2023/04/22 09:08:49;;;;;;;11.48;4.35;;;;;;;18.21;44.27;94356.19;5140569;27;20204;-71
2023/04/22 09:11:19;;;;;;;9.50;4.90;;;;;;;19.17;41.97;94351.94;5137181;27;20228;-74
2023/04/22 09:13:46;;;;;;;9.80;4.18;;;;;;;19.45;42.19;94345.72;5138929;27;20659;-72
2023/04/22 09:16:13;;;;;;;5.82;4.50;;;;;;;20.18;41.06;94332.38;5129311;27;20209;-73
2023/04/22 09:18:41;;;;;;;10.25;4.50;;;;;;;19.00;42.81;94331.50;5141513;27;20200;-73
2023/04/22 09:21:08;;;;;;;7.93;4.53;;;;;;;18.64;44.67;94346.28;5136264;27;20272;-73
2023/04/22 09:23:45;;;;;;;6.38;4.53;;;;;;;18.19;44.59;94340.13;5137760;27;20296;-76
2023/04/22 09:26:13;;;;;;;11.23;5.32;;;;;;;17.97;44.42;94341.16;5136955;27;20188;-74
2023/04/22 09:28:49;;;;;;;8.15;4.68;;;;;;;18.29;43.35;94342.16;5136299;27;20208;-73
2023/04/22 09:31:16;;;;;;;8.13;4.80;;;;;;;17.51;45.73;94347.03;5141225;27;20208;-73
2023/04/22 09:33:47;;;;;;;10.55;4.85;;;;;;;18.09;45.04;94332.63;5143531;27;20717;-76
2023/04/22 09:36:15;;;;;;;10.05;4.53;;;;;;;17.99;44.37;94327.88;5138916;27;20581;-75
2023/04/22 09:38:51;;;;;;;7.18;4.20;;;;;;;17.80;42.23;94325.38;5148011;27;20208;-73
2023/04/22 09:41:29;;;;;;;9.50;4.35;;;;;;;17.90;42.88;94324.69;5140786;27;20231;-76
2023/04/22 09:43:57;;;;;;;7.72;4.40;;;;;;;18.50;41.86;94321.47;5130509;27;20336;-72
2023/04/22 09:46:25;;;;;;;7.95;3.97;;;;;;;18.31;42.24;94317.84;5128705;27;20292;-74
2023/04/22 09:48:53;;;;;;;4.47;2.40;;;;;;;18.45;39.53;94336.34;5142938;27;20204;-74
2023/04/22 09:51:33;;;;;;;6.63;3.63;;;;;;;18.54;40.45;94327.78;5142800;27;20224;-77
2023/04/22 09:54:09;;;;;;;5.13;3.30;;;;;;;19.05;38.54;94317.38;5128987;27;20702;-77
2023/04/22 09:56:48;;;;;;;5.28;3.30;;;;;;;19.77;36.00;94327.31;5133273;27;20555;-78
2023/04/22 09:59:20;;;;;;;5.30;2.63;;;;;;;19.21;32.61;94317.03;5145003;27;20279;-76
2023/04/22 10:01:59;;;;;;;4.65;2.50;;;;;;;20.78;32.90;94309.41;5143661;27;20307;-78
2023/04/22 10:05:13;;;;;;;3.63;3.10;;;;;;;21.14;33.80;94310.78;5130740;27;20280;-78
2023/04/22 10:07:40;;;;;;;1.90;1.60;;;;;;;17.95;42.43;94329.78;5130483;27;20726;-76
2023/04/22 10:10:10;;;;;;;4.72;1.98;;;;;;;16.44;45.40;94347.03;5128847;27;20608;-78
2023/04/22 10:12:38;;;;;;;3.17;2.05;;;;;;;16.16;46.58;94323.63;5142813;27;20324;-77
2023/04/22 10:15:06;;;;;;;3.08;1.52;;;;;;;15.72;46.99;94355.38;5138102;27;20666;-76
2023/04/22 10:17:37;;;;;;;4.75;2.05;;;;;;;15.15;48.06;94351.69;5153411;27;20200;-76
2023/04/22 10:20:08;;;;;;;2.55;1.48;;;;;;;15.03;48.57;94338.22;5142420;27;20200;-75
2023/04/22 10:22:35;;;;;;;3.85;1.73;;;;;;;15.43;47.81;94335.00;5137837;27;20228;-75
2023/04/22 10:25:02;;;;;;;4.18;1.85;;;;;;;16.24;45.41;94335.47;5151359;27;20200;-76
2023/04/22 10:27:29;;;;;;;2.35;1.38;;;;;;;16.27;45.52;94332.75;5148321;27;20204;-76
2023/04/22 10:29:57;;;;;;;7.10;2.05;;;;;;;16.26;45.61;94333.16;5142256;27;20203;-75
2023/04/22 10:32:26;;;;;;;1.27;1.02;;;;;;;16.00;44.51;94331.22;5133433;27;20205;-75
2023/04/22 10:35:08;;;;;;;4.93;1.45;;;;;;;16.35;44.08;94326.25;5129149;28;20201;-76
2023/04/22 10:37:35;;;;;;;2.20;1.70;;;;;;;16.63;43.62;94319.56;5129381;28;20217;-76
2023/04/22 10:40:11;;;;;;;1.35;1.02;;;;;;;16.39;42.84;94315.34;5143432;27;20756;-76
2023/04/22 10:42:40;;;;;;;2.95;1.50;;;;;;;16.86;43.00;94317.47;5141381;27;20235;-77
2023/04/22 10:45:13;;;;;;;3.22;1.70;;;;;;;16.43;44.80;94312.66;5143597;27;20196;-74
2023/04/22 10:47:40;;;;;;;4.97;2.22;;;;;;;16.73;44.45;94329.06;5139912;27;20192;-74
2023/04/22 10:50:32;;;;;;;3.35;2.08;;;;;;;16.31;44.21;94319.94;5133071;27;20237;-73
2023/04/22 10:53:02;;;;;;;2.30;1.67;;;;;;;16.83;42.84;94331.91;5124895;27;20212;-73
2023/04/22 10:55:50;;;;;;;2.67;2.13;;;;;;;17.03;42.42;94300.47;5141576;27;20675;-74
2023/04/22 10:58:20;;;;;;;2.50;1.90;;;;;;;17.12;42.50;94304.81;5140465;27;20177;-73
2023/04/22 11:00:52;;;;;;;2.13;1.63;;;;;;;17.24;41.46;94299.06;5145050;27;20689;-72
2023/04/22 11:03:26;;;;;;;3.00;1.98;;;;;;;17.12;40.69;94313.03;5137299;27;20257;-72
2023/04/22 11:06:13;;;;;;;5.53;2.17;;;;;;;17.40;41.28;94302.34;5135659;27;20269;-72
2023/04/22 11:08:44;;;;;;;6.05;1.83;;;;;;;17.40;40.31;94302.34;5131126;27;20185;-74
2023/04/22 11:11:12;;;;;;;2.90;1.85;;;;;;;18.04;40.21;94303.63;5137853;27;20221;-72
2023/04/22 11:13:41;;;;;;;5.00;2.35;;;;;;;17.70;39.34;94297.53;5138794;27;20256;-73
2023/04/22 11:16:10;;;;;;;4.82;1.60;;;;;;;18.21;38.64;94293.91;5134393;27;20671;-73
2023/04/22 11:18:38;;;;;;;1.33;1.23;;;;;;;17.75;38.54;94293.66;5137632;27;20197;-72
2023/04/22 11:21:07;;;;;;;3.40;2.17;;;;;;;17.48;38.78;94298.53;5142211;27;20329;-74
2023/04/22 11:23:34;;;;;;;3.42;1.90;;;;;;;17.50;39.36;94306.34;5139783;27;20697;-71
2023/04/22 11:26:03;;;;;;;1.75;1.10;;;;;;;16.62;43.33;94320.69;5136206;27;20196;-70
2023/04/22 11:28:30;;;;;;;2.10;0.93;;;;;;;16.06;45.30;94323.50;5140633;27;20204;-70
2023/04/22 11:31:05;;;;;;;3.63;1.13;;;;;;;15.53;47.56;94321.53;5145571;27;20201;-69
2023/04/22 11:33:37;;;;;;;3.28;1.33;;;;;;;15.49;48.51;94323.41;5131640;27;20200;-70